Time;durP1;ratioP1;P1;durP2;ratioP2;P2;SDS_P1;SDS_P2;PMS_P1;PMS_P2;Temp;Humidity;BMP_temperature;BMP_pressure;BME280_temperature;BME280_humidity;BME280_pressure;Samples;Min_cycle;Max_cycle;Signal;HPM_P1;HPM_P2
2021/08/23 00:01:11;;;;;;;19.33;13.45;;;;;;;16.67;96.77;102174.91;4990331;28;20500;-85
2021/08/23 00:03:36;;;;;;;21.30;13.70;;;;;;;16.66;96.83;102179.34;5008283;28;20048;-85
2021/08/23 00:06:02;;;;;;;17.92;12.90;;;;;;;16.63;96.60;102179.31;5009457;28;20050;-84
2021/08/23 00:08:50;;;;;;;21.00;14.32;;;;;;;16.68;96.75;102176.69;5008716;28;20037;-80
2021/08/23 00:11:53;;;;;;;24.02;15.50;;;;;;;16.68;96.62;102182.03;4994225;28;20126;-86
2021/08/23 00:14:22;;;;;;;25.10;15.00;;;;;;;16.67;96.27;102180.22;5073463;28;20038;-84
2021/08/23 00:16:50;;;;;;;22.08;15.68;;;;;;;16.67;96.43;102172.25;5010243;28;20026;-86
2021/08/23 00:19:38;;;;;;;21.52;15.07;;;;;;;16.66;96.09;102176.69;5010319;28;20026;-86
2021/08/23 00:22:56;;;;;;;24.00;15.82;;;;;;;16.65;96.16;102176.69;4994603;28;20038;-85
2021/08/23 00:25:22;;;;;;;27.77;14.93;;;;;;;16.65;95.88;102176.69;5007339;28;20042;-85
2021/08/23 00:28:28;;;;;;;20.73;15.13;;;;;;;16.61;95.65;102175.72;4991571;28;20037;-85
2021/08/23 00:31:13;;;;;;;22.90;16.45;;;;;;;16.62;96.00;102187.28;5004917;28;20045;-85
2021/08/23 00:33:39;;;;;;;23.63;15.85;;;;;;;16.60;96.39;102189.00;5008680;28;20034;-85
2021/08/23 00:36:25;;;;;;;20.33;15.55;;;;;;;16.58;96.40;102188.09;5010824;28;20392;-84
2021/08/23 00:39:30;;;;;;;23.35;14.57;;;;;;;16.61;96.02;102196.13;5008362;28;20041;-86
2021/08/23 00:42:40;;;;;;;24.50;15.70;;;;;;;16.59;96.11;102195.19;4991724;28;20092;-87
2021/08/23 00:45:25;;;;;;;24.42;15.13;;;;;;;16.61;95.97;102199.66;5004575;28;20042;-83
2021/08/23 00:48:11;;;;;;;22.48;14.60;;;;;;;16.56;95.57;102203.13;5009770;28;20038;-85
2021/08/23 00:51:19;;;;;;;20.25;14.35;;;;;;;16.54;95.40;102205.78;5009094;28;20030;-83
2021/08/23 00:54:27;;;;;;;20.40;13.50;;;;;;;16.53;95.52;102206.63;5008768;28;20128;-81
2021/08/23 00:56:53;;;;;;;19.55;13.15;;;;;;;16.52;95.43;102208.41;4995612;28;20100;-84
2021/08/23 00:59:40;;;;;;;21.73;14.93;;;;;;;16.47;95.38;102210.09;5006491;28;20480;-84
2021/08/23 01:02:49;;;;;;;21.58;14.27;;;;;;;16.45;95.70;102211.81;5006294;28;20052;-80
2021/08/23 01:05:52;;;;;;;19.15;13.68;;;;;;;16.43;95.92;102218.03;4994857;28;20054;-89
2021/08/23 01:08:57;;;;;;;18.88;14.00;;;;;;;16.43;95.80;102226.00;5007116;28;20049;-85
2021/08/23 01:11:25;;;;;;;19.60;14.02;;;;;;;16.42;95.88;102222.41;5000307;28;20086;-83
2021/08/23 01:14:30;;;;;;;19.05;13.23;;;;;;;16.43;96.09;102232.19;5010738;28;20030;-85
2021/08/23 01:17:41;;;;;;;18.58;13.40;;;;;;;16.39;95.78;102238.31;5011564;28;20522;-84
2021/08/23 01:20:27;;;;;;;20.42;14.25;;;;;;;16.37;96.08;102240.03;5009681;28;20484;-84
2021/08/23 01:22:55;;;;;;;19.35;13.85;;;;;;;16.35;95.93;102239.16;5009953;28;20525;-82
2021/08/23 01:25:26;;;;;;;19.85;13.73;;;;;;;16.32;96.15;102241.78;5011325;28;20056;-84
2021/08/23 01:28:26;;;;;;;25.13;14.68;;;;;;;16.29;96.49;102247.00;5006608;28;20044;-82
2021/08/23 01:31:11;;;;;;;18.52;14.27;;;;;;;16.26;96.34;102247.84;5004975;28;20050;-82
2021/08/23 01:33:56;;;;;;;21.83;15.02;;;;;;;16.21;96.71;102251.31;4992969;28;20030;-82
2021/08/23 01:36:22;;;;;;;23.45;14.63;;;;;;;16.17;96.28;102253.06;5011040;28;20105;-86
2021/08/23 01:39:08;;;;;;;18.98;14.35;;;;;;;16.14;96.55;102253.88;4992163;28;20110;-85
2021/08/23 01:41:33;;;;;;;23.73;15.52;;;;;;;16.13;96.44;102262.72;4993207;28;20030;-82
2021/08/23 01:44:01;;;;;;;22.40;15.15;;;;;;;16.12;96.15;102260.03;5010422;28;20078;-81
2021/08/23 01:46:51;;;;;;;22.70;14.95;;;;;;;16.14;95.92;102266.25;4992744;28;20034;-84
2021/08/23 01:49:56;;;;;;;20.48;14.70;;;;;;;16.15;95.81;102260.06;5007884;28;20045;-81
2021/08/23 01:52:21;;;;;;;19.63;13.55;;;;;;;16.14;95.62;102264.50;5003624;28;20062;-88
2021/08/23 01:54:57;;;;;;;20.60;13.23;;;;;;;16.17;94.89;102266.31;4998831;28;20050;-83
2021/08/23 01:57:22;;;;;;;17.23;12.88;;;;;;;16.19;94.96;102270.75;4998721;28;20034;-85
2021/08/23 02:00:08;;;;;;;20.27;12.95;;;;;;;16.17;94.88;102269.88;5010128;28;20389;-86
2021/08/23 02:02:34;;;;;;;16.50;11.98;;;;;;;16.20;94.84;102269.03;5008903;28;20038;-86
2021/08/23 02:04:59;;;;;;;20.75;12.73;;;;;;;16.22;94.79;102267.28;5009163;28;20487;-87
2021/08/23 02:07:27;;;;;;;22.30;12.48;;;;;;;16.22;94.48;102282.31;5012421;28;20490;-82
2021/08/23 02:09:56;;;;;;;19.00;12.13;;;;;;;16.23;94.25;102273.50;5013201;28;20018;-86
2021/08/23 02:12:21;;;;;;;18.55;11.43;;;;;;;16.22;94.33;102274.34;5011005;28;20029;-86
2021/08/23 02:14:47;;;;;;;15.50;10.02;;;;;;;16.26;94.54;102284.16;5010262;28;20030;-86
2021/08/23 02:17:12;;;;;;;15.32;10.60;;;;;;;16.25;94.13;102277.06;4997125;28;20018;-83
2021/08/23 02:19:58;;;;;;;14.02;10.82;;;;;;;16.25;93.63;102275.31;5012805;28;20037;-82
2021/08/23 02:22:23;;;;;;;14.77;9.90;;;;;;;16.28;93.43;102282.44;5012293;28;20026;-80
2021/08/23 02:24:49;;;;;;;14.10;9.82;;;;;;;16.29;93.33;102293.09;5011281;28;20075;-85
2021/08/23 02:27:14;;;;;;;13.00;9.18;;;;;;;16.29;93.17;102287.78;5011487;28;20029;-83
2021/08/23 02:30:00;;;;;;;10.77;8.98;;;;;;;16.28;93.06;102304.56;5012476;28;20026;-81
2021/08/23 02:32:26;;;;;;;10.35;8.30;;;;;;;16.28;93.40;102304.56;4994579;28;20025;-87
2021/08/23 02:34:52;;;;;;;10.60;8.02;;;;;;;16.28;92.71;102303.69;4995485;28;20472;-85
2021/08/23 02:37:17;;;;;;;15.10;8.40;;;;;;;16.29;92.66;102306.38;5009803;28;20041;-81
2021/08/23 02:40:23;;;;;;;10.38;8.20;;;;;;;16.28;92.44;102309.00;5012469;28;20426;-83
2021/08/23 02:42:48;;;;;;;10.70;7.65;;;;;;;16.29;92.11;102305.44;4996509;28;20038;-85
2021/08/23 02:45:16;;;;;;;12.07;7.63;;;;;;;16.30;92.44;102316.09;4995741;28;20018;-83
2021/08/23 02:47:42;;;;;;;11.38;7.22;;;;;;;16.32;92.15;102318.81;4996493;28;20033;-85
2021/08/23 02:50:34;;;;;;;10.50;7.57;;;;;;;16.30;91.81;102313.44;5011389;28;20029;-87
2021/08/23 02:52:59;;;;;;;10.38;7.97;;;;;;;16.31;91.94;102309.91;4996481;28;20034;-83
2021/08/23 02:55:44;;;;;;;10.00;6.78;;;;;;;16.32;91.84;102316.16;5011770;28;20066;-85
2021/08/23 02:58:10;;;;;;;15.38;7.00;;;;;;;16.32;90.88;102317.03;5011736;28;20460;-85
2021/08/23 03:00:36;;;;;;;9.70;5.88;;;;;;;16.32;91.05;102327.66;5007764;28;20022;-80
2021/08/23 03:03:01;;;;;;;12.73;6.32;;;;;;;16.34;90.68;102333.00;5012248;28;20121;-82
2021/08/23 03:05:27;;;;;;;12.82;5.55;;;;;;;16.33;91.25;102336.50;5011541;28;20065;-78
2021/08/23 03:07:52;;;;;;;13.13;5.78;;;;;;;16.33;91.05;102336.50;5011509;28;20078;-84
2021/08/23 03:10:18;;;;;;;10.07;5.55;;;;;;;16.32;91.05;102348.91;5011386;28;20034;-86
2021/08/23 03:12:43;;;;;;;11.98;6.65;;;;;;;16.29;90.99;102346.22;5011503;28;20498;-83
2021/08/23 03:15:37;;;;;;;9.90;5.88;;;;;;;16.31;90.74;102344.44;5011899;28;20036;-82
2021/08/23 03:18:23;;;;;;;13.68;6.30;;;;;;;16.31;91.42;102349.78;5009403;28;20569;-81
2021/08/23 03:20:49;;;;;;;11.05;5.63;;;;;;;16.33;91.06;102347.13;5078456;28;20164;-81
2021/08/23 03:23:15;;;;;;;8.98;4.93;;;;;;;16.33;90.98;102355.09;5010989;28;20113;-83
2021/08/23 03:26:01;;;;;;;12.02;4.85;;;;;;;16.33;91.13;102352.44;5011533;28;20034;-81
2021/08/23 03:28:28;;;;;;;10.85;5.03;;;;;;;16.35;91.04;102358.69;5011170;28;20459;-83
2021/08/23 03:31:17;;;;;;;8.80;4.57;;;;;;;16.37;91.04;102356.06;5011786;28;20072;-85
2021/08/23 03:33:43;;;;;;;14.18;5.38;;;;;;;16.33;91.10;102357.75;5009799;28;20046;-84
2021/08/23 03:36:17;;;;;;;8.82;5.13;;;;;;;16.33;91.08;102358.69;5011268;28;20026;-85
2021/08/23 03:38:47;;;;;;;15.27;4.95;;;;;;;16.34;91.19;102364.88;5011219;28;20034;-85
2021/08/23 03:41:12;;;;;;;11.18;4.47;;;;;;;16.33;91.11;102360.41;5011842;28;20508;-81
2021/08/23 03:43:38;;;;;;;10.38;5.00;;;;;;;16.35;91.30;102364.00;5011632;28;20029;-84
2021/08/23 03:46:03;;;;;;;8.52;4.43;;;;;;;16.36;91.10;102371.13;5010386;28;20022;-90
2021/08/23 03:48:29;;;;;;;8.88;4.85;;;;;;;16.35;90.88;102370.19;5011170;28;20041;-81
2021/08/23 03:50:54;;;;;;;9.32;4.50;;;;;;;16.35;91.25;102374.63;5010156;28;20033;-83
2021/08/23 03:53:20;;;;;;;12.73;4.88;;;;;;;16.34;90.71;102378.16;5011158;28;20041;-82
2021/08/23 03:55:45;;;;;;;12.48;4.60;;;;;;;16.36;90.81;102376.44;5010930;28;20029;-83
2021/08/23 03:58:11;;;;;;;9.32;3.83;;;;;;;16.38;90.30;102374.69;5010804;28;20365;-82
2021/08/23 04:00:36;;;;;;;10.35;4.32;;;;;;;16.39;90.60;102375.59;5007779;28;20037;-83
2021/08/23 04:03:02;;;;;;;16.20;4.25;;;;;;;16.40;90.17;102382.66;5009820;28;20117;-85
2021/08/23 04:05:47;;;;;;;11.98;3.80;;;;;;;16.41;89.64;102381.81;5010805;28;20050;-84
2021/08/23 04:08:14;;;;;;;9.48;3.67;;;;;;;16.39;89.85;102387.09;5009721;28;20026;-85
2021/08/23 04:10:40;;;;;;;9.98;3.80;;;;;;;16.39;89.72;102392.41;5008943;28;20041;-82
2021/08/23 04:13:05;;;;;;;7.10;4.10;;;;;;;16.38;89.72;102389.75;5011876;28;20041;-83
2021/08/23 04:15:33;;;;;;;9.75;3.90;;;;;;;16.41;89.64;102392.44;4995575;28;20437;-81
2021/08/23 04:18:19;;;;;;;6.35;3.65;;;;;;;16.40;89.13;102404.84;5014773;28;20022;-81
2021/08/23 04:20:44;;;;;;;10.10;3.90;;;;;;;16.37;89.99;102407.41;5013189;28;20032;-84
2021/08/23 04:23:11;;;;;;;11.10;3.75;;;;;;;16.36;89.72;102408.31;5011454;28;20454;-83
2021/08/23 04:25:37;;;;;;;9.18;3.58;;;;;;;16.36;89.50;102408.31;5008447;28;20034;-85
2021/08/23 04:28:22;;;;;;;6.35;3.58;;;;;;;16.36;89.18;102413.63;5007882;28;20024;-86
2021/08/23 04:30:48;;;;;;;10.13;3.97;;;;;;;16.32;89.43;102417.97;4997632;28;20049;-86
2021/08/23 04:33:13;;;;;;;6.63;3.97;;;;;;;16.34;89.33;102421.53;5010331;28;20061;-86
2021/08/23 04:35:39;;;;;;;8.48;3.85;;;;;;;16.31;89.45;102425.91;5008974;28;20659;-79
2021/08/23 04:38:04;;;;;;;10.60;4.35;;;;;;;16.32;89.42;102433.03;5010588;28;20014;-88
2021/08/23 04:40:30;;;;;;;8.20;3.85;;;;;;;16.32;89.06;102433.03;5020513;28;20041;-85
2021/08/23 04:42:55;;;;;;;10.70;4.00;;;;;;;16.32;89.00;102444.53;5010029;28;20036;-84
2021/08/23 04:45:21;;;;;;;10.40;3.75;;;;;;;16.30;89.20;102440.06;5001668;28;20400;-83
2021/08/23 04:48:07;;;;;;;8.25;4.13;;;;;;;16.31;88.94;102449.81;4996587;28;20464;-80
2021/08/23 04:50:32;;;;;;;12.88;4.53;;;;;;;16.31;88.38;102447.16;4999970;28;20475;-81
2021/08/23 04:53:00;;;;;;;8.30;3.75;;;;;;;16.33;88.33;102445.41;4999262;28;20124;-80
2021/08/23 04:55:26;;;;;;;15.00;3.72;;;;;;;16.33;88.69;102450.75;4997078;28;20026;-82
2021/08/23 04:58:14;;;;;;;14.88;3.80;;;;;;;16.34;88.90;102463.16;5008341;28;20175;-84
2021/08/23 05:00:40;;;;;;;7.68;3.58;;;;;;;16.34;88.98;102468.47;4993585;28;20073;-83
2021/08/23 05:03:06;;;;;;;7.25;3.20;;;;;;;16.35;89.13;102467.63;5003826;28;20071;-81
2021/08/23 05:05:51;;;;;;;9.43;4.00;;;;;;;16.34;89.33;102468.47;4998562;28;20049;-85
2021/08/23 05:08:19;;;;;;;9.85;4.13;;;;;;;16.34;89.48;102473.78;5008582;28;20381;-85
2021/08/23 05:11:06;;;;;;;8.25;3.45;;;;;;;16.33;89.75;102475.56;5010525;28;20049;-84
2021/08/23 05:13:31;;;;;;;10.00;3.75;;;;;;;16.31;89.38;102477.28;5008266;28;20054;-82
2021/08/23 05:16:37;;;;;;;9.13;3.33;;;;;;;16.32;89.25;102484.38;4998155;28;20061;-87
2021/08/23 05:19:03;;;;;;;8.00;3.35;;;;;;;16.35;89.45;102492.41;5006081;28;20392;-84
2021/08/23 05:21:29;;;;;;;9.38;3.22;;;;;;;16.31;89.40;102487.03;4990673;28;20113;-91
2021/08/23 05:23:56;;;;;;;12.90;3.83;;;;;;;16.33;89.63;102493.25;5001691;28;20029;-87
2021/08/23 05:26:25;;;;;;;10.32;3.58;;;;;;;16.32;89.74;102502.09;5003707;28;20042;-83
2021/08/23 05:29:10;;;;;;;6.35;3.28;;;;;;;16.33;88.94;102494.16;4997667;28;20156;-82
2021/08/23 05:31:55;;;;;;;9.10;3.53;;;;;;;16.35;89.05;102495.06;5007377;28;20026;-89
2021/08/23 05:34:24;;;;;;;10.05;2.97;;;;;;;16.38;89.08;102499.53;5008963;28;20026;-86
2021/08/23 05:36:58;;;;;;;14.13;4.10;;;;;;;16.41;89.39;102506.69;5001696;28;20034;-82
2021/08/23 05:39:24;;;;;;;8.25;3.50;;;;;;;16.42;89.53;102505.81;5010873;28;20113;-83
2021/08/23 05:41:49;;;;;;;7.28;4.20;;;;;;;16.46;89.48;102505.91;5018914;28;20065;-83
2021/08/23 05:44:54;;;;;;;9.30;4.57;;;;;;;16.49;89.38;102508.63;5028290;28;20117;-87
2021/08/23 05:47:29;;;;;;;10.40;3.70;;;;;;;16.52;89.22;102515.75;5012565;28;20095;-84
2021/08/23 05:49:54;;;;;;;5.97;3.85;;;;;;;16.54;89.35;102523.78;4996540;28;20089;-84
2021/08/23 05:52:20;;;;;;;7.32;3.33;;;;;;;16.57;89.27;102518.50;5012827;28;20061;-83
2021/08/23 05:55:05;;;;;;;16.55;3.65;;;;;;;16.63;89.65;102529.22;5014518;28;20427;-82
2021/08/23 05:57:35;;;;;;;7.13;3.50;;;;;;;16.65;89.81;102530.16;4995807;28;20053;-84
2021/08/23 06:00:20;;;;;;;9.10;3.33;;;;;;;16.69;90.08;102529.34;5002114;28;20117;-82
2021/08/23 06:03:06;;;;;;;11.38;3.80;;;;;;;16.73;89.76;102536.53;5010770;28;20025;-88
2021/08/23 06:05:51;;;;;;;10.75;3.63;;;;;;;16.77;89.60;102535.69;5012803;28;20130;-81
2021/08/23 06:08:26;;;;;;;11.27;3.67;;;;;;;16.79;89.75;102536.66;5004486;28;20037;-82
2021/08/23 06:10:51;;;;;;;7.60;3.60;;;;;;;16.79;90.02;102535.72;5012562;28;20022;-85
2021/08/23 06:13:17;;;;;;;10.65;4.20;;;;;;;16.86;90.18;102537.63;5012265;28;20306;-81
2021/08/23 06:15:42;;;;;;;11.77;4.18;;;;;;;16.88;90.90;102537.66;5012617;28;20033;-85
2021/08/23 06:18:10;;;;;;;10.75;3.90;;;;;;;16.89;90.53;102542.09;5002226;28;20033;-81
2021/08/23 06:20:40;;;;;;;7.72;3.30;;;;;;;16.94;90.72;102545.78;4995679;28;20080;-88
2021/08/23 06:23:25;;;;;;;12.07;3.67;;;;;;;16.93;90.76;102546.63;4995782;28;20556;-83
2021/08/23 06:26:00;;;;;;;9.80;4.00;;;;;;;16.92;90.62;102547.53;5011596;28;20030;-82
2021/08/23 06:28:55;;;;;;;9.95;4.35;;;;;;;17.00;90.69;102545.91;5013479;28;20030;-89
2021/08/23 06:31:23;;;;;;;10.63;3.70;;;;;;;17.01;90.51;102547.66;5023069;28;20041;-88
2021/08/23 06:34:08;;;;;;;11.57;4.07;;;;;;;17.08;90.66;102538.94;4995942;28;20035;-89
2021/08/23 06:37:15;;;;;;;10.38;4.05;;;;;;;17.12;90.81;102548.75;5011421;28;20037;-81
2021/08/23 06:40:03;;;;;;;10.85;3.50;;;;;;;17.15;90.45;102543.47;4987467;28;20134;-86
2021/08/23 06:42:29;;;;;;;12.30;3.63;;;;;;;17.21;90.95;102550.66;5004603;28;20065;-88
2021/08/23 06:45:38;;;;;;;8.40;3.45;;;;;;;17.25;90.36;102548.97;5004327;28;20033;-92
2021/08/23 06:48:26;;;;;;;11.45;3.95;;;;;;;17.29;90.30;102549.00;5010019;28;20530;-83
2021/08/23 06:51:04;;;;;;;17.10;4.78;;;;;;;17.38;89.65;102548.28;5013334;28;20068;-84
2021/08/23 06:53:59;;;;;;;13.07;4.60;;;;;;;17.45;89.65;102551.94;5012464;28;20034;-86
2021/08/23 06:57:04;;;;;;;9.73;3.88;;;;;;;17.51;89.67;102552.94;5012833;28;20038;-87
2021/08/23 06:59:31;;;;;;;8.27;3.30;;;;;;;17.57;89.68;102564.56;4998353;28;20098;-87
2021/08/23 07:01:59;;;;;;;8.13;3.63;;;;;;;17.65;88.94;102557.56;5010144;28;20472;-83
2021/08/23 07:04:30;;;;;;;8.50;3.13;;;;;;;17.73;88.70;102560.31;5027070;28;20046;-83
2021/08/23 07:07:19;;;;;;;8.60;3.17;;;;;;;17.75;88.19;102567.47;5067578;28;20111;-84
2021/08/23 07:10:20;;;;;;;7.50;3.20;;;;;;;17.80;88.14;102565.75;5082646;28;20553;-81
2021/08/23 07:13:33;;;;;;;14.45;3.85;;;;;;;17.92;87.63;102574.81;5096224;28;20036;-85
2021/08/23 07:16:39;;;;;;;5.88;3.05;;;;;;;18.07;86.91;102580.38;5039810;28;20037;-80
2021/08/23 07:19:04;;;;;;;8.25;3.20;;;;;;;18.12;86.87;102581.34;5114563;28;20027;-87
2021/08/23 07:21:48;;;;;;;12.48;3.50;;;;;;;18.24;85.81;102579.69;5113827;28;20024;-86
2021/08/23 07:24:36;;;;;;;11.25;3.20;;;;;;;18.43;85.65;102581.69;5114060;28;20040;-87
2021/08/23 07:27:05;;;;;;;10.38;3.30;;;;;;;18.45;84.15;102574.63;5088731;28;20032;-80
2021/08/23 07:29:58;;;;;;;6.25;3.10;;;;;;;18.52;83.24;102575.59;5087186;28;20019;-87
2021/08/23 07:32:46;;;;;;;5.15;2.42;;;;;;;18.62;82.40;102576.56;5080246;28;20033;-88
2021/08/23 07:35:12;;;;;;;11.05;3.00;;;;;;;18.84;82.78;102578.59;5082675;28;20036;-79
2021/08/23 07:38:09;;;;;;;8.35;2.70;;;;;;;19.09;81.34;102573.53;5099671;28;20068;-87
2021/08/23 07:40:38;;;;;;;7.03;2.38;;;;;;;19.32;80.84;102575.50;5086820;28;20039;-88
2021/08/23 07:43:04;;;;;;;6.72;2.63;;;;;;;19.41;78.75;102575.56;5073178;28;20030;-80
2021/08/23 07:45:50;;;;;;;6.68;2.65;;;;;;;19.59;78.91;102572.13;5027855;28;20068;-82
2021/08/23 07:48:39;;;;;;;5.80;2.65;;;;;;;19.75;76.81;102570.47;5065473;28;20544;-84
2021/08/23 07:51:06;;;;;;;6.90;2.58;;;;;;;19.82;76.67;102574.09;5021234;28;20044;-90
2021/08/23 07:53:32;;;;;;;9.40;2.60;;;;;;;19.83;75.27;102566.09;5071108;28;20023;-80
2021/08/23 07:55:58;;;;;;;6.72;2.40;;;;;;;19.74;74.88;102579.34;5076301;28;20117;-86
2021/08/23 07:58:49;;;;;;;9.68;2.72;;;;;;;19.83;75.04;102582.13;5063335;28;20030;-83
2021/08/23 08:01:34;;;;;;;7.72;2.63;;;;;;;19.63;74.43;102573.03;5039591;28;20040;-83
2021/08/23 08:04:03;;;;;;;5.65;2.53;;;;;;;19.52;75.13;102579.19;5045200;28;20072;-84
2021/08/23 08:06:49;;;;;;;7.97;2.40;;;;;;;19.29;75.50;102575.44;5018600;28;20116;-87
2021/08/23 08:09:34;;;;;;;10.20;2.92;;;;;;;19.11;75.68;102587.75;5022407;28;20041;-86
2021/08/23 08:12:20;;;;;;;5.28;2.60;;;;;;;19.10;75.83;102587.75;5022259;28;20047;-86
2021/08/23 08:15:07;;;;;;;;;;;;;;;;;;;;;
2021/08/23 08:21:53;;;;;;;7.07;2.10;;;;;;;19.38;75.10;102583.53;4994928;28;20041;-86
2021/08/23 08:25:17;;;;;;;9.40;3.20;;;;;;;19.65;74.59;102589.97;5023518;28;20038;-81
2021/08/23 08:27:45;;;;;;;6.47;2.65;;;;;;;19.72;72.43;102586.44;5025765;28;20041;-81
2021/08/23 08:31:00;;;;;;;7.63;2.63;;;;;;;19.93;72.13;102587.50;5023807;28;20186;-86
2021/08/23 08:33:48;;;;;;;;;;;;;;;19.92;72.05;102591.06;5011107;28;20033;-86
2021/08/23 08:37:14;;;;;;;7.00;1.90;;;;;;;20.12;70.60;102591.16;4999075;28;20360;-86
2021/08/23 08:40:43;;;;;;;4.93;2.38;;;;;;;20.09;71.03;102596.47;4985592;28;20045;-84
2021/08/23 08:43:53;;;;;;;8.57;2.05;;;;;;;20.10;69.62;102596.47;5010443;28;20086;-84
2021/08/23 08:50:39;;;;;;;9.25;2.33;;;;;;;20.37;68.53;102605.50;5002780;28;20033;-85
2021/08/23 08:53:18;;;;;;;7.60;2.20;;;;;;;20.44;68.33;102611.78;4956587;28;20150;-80
2021/08/23 08:56:44;;;;;;;6.55;1.70;;;;;;;20.57;67.82;102610.94;5011044;28;20053;-81
2021/08/23 09:07:35;;;;;;;7.22;2.00;;;;;;;20.65;65.42;102613.66;4914424;29;20048;-88
2021/08/23 09:10:47;;;;;;;6.28;1.98;;;;;;;20.65;65.12;102608.28;4921431;29;20056;-85
2021/08/23 09:16:42;;;;;;;;;;;;;;;;;;;;;
2021/08/23 09:24:25;;;;;;;7.32;1.80;;;;;;;21.38;61.75;102603.97;4927720;29;20039;-81
2021/08/23 09:27:43;;;;;;;5.00;1.77;;;;;;;21.58;61.52;102606.63;4927659;29;20077;-84
2021/08/23 09:31:03;;;;;;;;;;;;;;;;;;;;;
2021/08/23 09:34:17;;;;;;;;;;;;;;;;;;;;;
2021/08/23 09:37:50;;;;;;;5.30;2.03;;;;;;;22.34;59.61;102612.72;4945752;28;20168;-89
2021/08/23 09:40:51;;;;;;;3.45;1.40;;;;;;;23.08;55.20;102595.28;4972577;28;20088;-88
2021/08/23 09:43:43;;;;;;;5.85;1.30;;;;;;;23.93;54.06;102596.31;4977649;28;20149;-85
2021/08/23 09:46:55;;;;;;;4.22;1.75;;;;;;;24.37;52.95;102602.97;4968644;28;20037;-86
2021/08/23 09:49:44;;;;;;;4.55;1.73;;;;;;;24.70;51.60;102598.94;4995023;28;20046;-86
2021/08/23 09:52:52;;;;;;;6.07;1.60;;;;;;;23.97;51.65;102592.69;5008002;28;20041;-85
2021/08/23 09:59:37;;;;;;;;;;;;;;;;;;;;;
2021/08/23 10:03:23;;;;;;;5.40;1.65;;;;;;;24.77;52.22;102602.44;5004834;28;20059;-84
2021/08/23 10:06:34;;;;;;;;;;;;;;;;;;;;;
2021/08/23 10:09:57;;;;;;;7.43;1.70;;;;;;;26.14;44.08;102580.28;4989073;28;20117;-84
2021/08/23 10:16:20;;;;;;;4.63;1.83;;;;;;;25.89;46.72;102591.50;4953161;28;20114;-84
2021/08/23 10:19:29;;;;;;;4.38;1.73;;;;;;;25.51;47.13;102594.97;5007616;28;20481;-85
2021/08/23 10:37:03;;;;;;;3.78;1.40;;;;;;;24.33;53.72;102609.28;4987362;28;20062;-85
2021/08/23 10:39:44;;;;;;;5.50;1.65;;;;;;;25.03;47.58;102584.97;4992508;28;20054;-82
2021/08/23 10:43:17;;;;;;;3.78;1.20;;;;;;;25.70;46.57;102590.13;5005200;28;20473;-86
2021/08/23 10:49:54;;;;;;;;;;;;;;;;;;;;;
2021/08/23 10:53:23;;;;;;;3.05;1.40;;;;;;;26.36;43.74;102569.00;4976847;28;20046;-84
2021/08/23 10:55:57;;;;;;;3.40;1.30;;;;;;;26.80;43.68;102569.81;4953757;28;20069;-84
2021/08/23 11:05:33;;;;;;;;;;;;;;;;;;;;;
2021/08/23 11:19:35;;;;;;;3.40;1.30;;;;;;;27.63;40.19;102576.72;4960065;28;20115;-86
2021/08/23 11:22:56;;;;;;;2.83;1.70;;;;;;;28.02;40.19;102576.53;4976620;28;20112;-88
2021/08/23 11:25:31;;;;;;;3.88;1.85;;;;;;;27.79;39.93;102572.66;5012699;28;20041;-84
2021/08/23 11:28:06;;;;;;;5.43;1.88;;;;;;;27.16;40.91;102566.22;5012815;28;20026;-82
2021/08/23 11:31:17;;;;;;;3.38;1.73;;;;;;;27.06;41.99;102576.38;5007576;28;20488;-82
2021/08/23 11:34:16;;;;;;;;;;;;;;;;;;;;;
2021/08/23 11:40:56;;;;;;;;;;;;;;;;;;;;;
2021/08/23 11:44:11;;;;;;;4.80;1.48;;;;;;;27.35;42.06;102577.44;5008593;28;20132;-83
2021/08/23 11:46:55;;;;;;;3.58;1.52;;;;;;;26.93;41.70;102573.09;4996465;28;20057;-85
2021/08/23 11:49:53;;;;;;;3.70;1.63;;;;;;;26.96;42.24;102569.44;4993974;28;20034;-81
2021/08/23 11:53:15;;;;;;;4.15;1.55;;;;;;;25.67;44.86;102580.28;4995717;28;20057;-85
2021/08/23 11:56:24;;;;;;;4.38;1.90;;;;;;;26.16;44.56;102591.91;5001990;28;20037;-87
2021/08/23 11:59:41;;;;;;;3.60;1.30;;;;;;;26.89;40.36;102568.72;5001584;28;20049;-92
2021/08/23 12:03:08;;;;;;;7.53;1.52;;;;;;;27.38;42.90;102585.50;5015576;28;20050;-85
2021/08/23 12:09:59;;;;;;;2.45;1.60;;;;;;;26.57;40.01;102573.94;4936570;28;20042;-81
2021/08/23 12:12:45;;;;;;;7.75;1.80;;;;;;;26.67;44.58;102581.78;4965858;28;20061;-81
2021/08/23 12:16:02;;;;;;;4.65;1.63;;;;;;;26.95;41.12;102578.47;4996661;28;21282;-87
2021/08/23 12:19:14;;;;;;;4.18;1.63;;;;;;;27.15;40.51;102583.38;5008806;28;20072;-85
2021/08/23 12:22:06;;;;;;;4.43;1.75;;;;;;;27.63;38.40;102579.44;4951846;28;20047;-85
2021/08/23 12:24:57;;;;;;;3.50;1.45;;;;;;;27.40;38.17;102571.03;5003778;28;20130;-81
2021/08/23 12:27:23;;;;;;;6.50;1.90;;;;;;;26.72;39.76;102566.41;5011174;28;20040;-86
2021/08/23 12:30:51;;;;;;;;;;;;;;;;;;;;;
2021/08/23 12:33:48;;;;;;;3.28;1.35;;;;;;;27.00;40.05;102576.53;4995259;28;20044;-84
2021/08/23 12:40:43;;;;;;;4.32;1.50;;;;;;;26.85;40.80;102577.81;5037861;28;20035;-87
2021/08/23 12:46:50;;;;;;;4.35;1.70;;;;;;;27.18;40.23;102586.88;4973141;28;20537;-84
2021/08/23 12:49:43;;;;;;;7.00;1.53;;;;;;;27.45;39.09;102583.53;4972761;28;20054;-88
2021/08/23 13:00:17;;;;;;;6.05;1.70;;;;;;;26.75;40.97;102588.84;4930808;29;20094;-88
2021/08/23 13:03:47;;;;;;;;;;;;;;;;;;;;;
2021/08/23 13:06:14;;;;;;;9.85;2.05;;;;;;;26.35;43.34;102588.81;4958091;28;20128;-84
2021/08/23 13:09:23;;;;;;;4.75;1.98;;;;;;;26.10;42.93;102592.06;5001439;28;20026;-87
2021/08/23 13:19:49;;;;;;;7.93;2.22;;;;;;;27.17;41.23;102598.63;4935768;28;20462;-88
2021/08/23 13:30:03;;;;;;;6.53;1.60;;;;;;;25.96;44.42;102596.81;4853046;29;20033;-82
2021/08/23 13:33:22;;;;;;;6.40;1.80;;;;;;;26.29;43.90;102597.03;4868888;29;20490;-84
2021/08/23 13:40:10;;;;;;;5.55;2.17;;;;;;;25.62;45.12;102597.47;4901217;28;20043;-86
2021/08/23 13:43:57;;;;;;;3.55;1.55;;;;;;;24.91;47.57;102600.41;4982907;28;20089;-82
2021/08/23 13:46:26;;;;;;;3.53;1.90;;;;;;;25.91;45.80;102610.38;4963790;28;20134;-84
2021/08/23 13:49:38;;;;;;;7.32;2.13;;;;;;;25.73;46.64;102606.22;4930950;28;20538;-85
2021/08/23 14:03:32;;;;;;;3.05;1.50;;;;;;;25.44;45.78;102613.03;4976284;28;20129;-89
2021/08/23 14:10:37;;;;;;;2.90;1.55;;;;;;;25.21;45.33;102600.81;4935269;29;20047;-83
2021/08/23 14:14:02;;;;;;;;;;;;;;;;;;;;;
2021/08/23 14:24:22;;;;;;;;;;;;;;;;;;;;;
2021/08/23 14:27:39;;;;;;;3.55;1.60;;;;;;;23.61;50.03;102619.03;4963238;28;20034;-83
2021/08/23 14:47:32;;;;;;;2.63;1.58;;;;;;;23.97;47.72;102620.47;4943962;29;20050;-87
2021/08/23 14:50:50;;;;;;;3.58;1.60;;;;;;;23.83;48.71;102622.38;4936546;29;20038;-81
2021/08/23 14:57:15;;;;;;;5.50;2.08;;;;;;;23.40;48.03;102618.34;4875215;29;20045;-84
2021/08/23 15:03:43;;;;;;;8.93;2.05;;;;;;;23.51;48.12;102619.13;4781194;30;20586;-84
2021/08/23 15:06:47;;;;;;;4.72;1.88;;;;;;;23.35;48.68;102620.16;4788099;29;20084;-83
2021/08/23 15:12:48;;;;;;;6.00;1.63;;;;;;;23.14;49.13;102621.22;4794373;29;20069;-88
2021/08/23 15:22:43;;;;;;;2.38;1.23;;;;;;;23.18;48.29;102618.53;4824752;29;20050;-84
2021/08/23 15:29:07;;;;;;;3.08;1.30;;;;;;;22.77;48.80;102616.97;4867555;29;20075;-85
2021/08/23 15:32:38;;;;;;;;;;;;;;;;;;;;;
2021/08/23 15:35:16;;;;;;;5.20;1.23;;;;;;;22.61;47.07;102626.00;4889805;29;20048;-85
2021/08/23 15:52:10;;;;;;;5.53;1.30;;;;;;;22.29;47.98;102624.31;4866124;29;20128;-85
2021/08/23 15:54:58;;;;;;;6.30;1.45;;;;;;;22.15;47.83;102627.97;4878545;29;20041;-87
2021/08/23 16:04:57;;;;;;;2.05;1.40;;;;;;;21.96;48.36;102631.59;4751583;30;20566;-84
2021/08/23 16:19:22;;;;;;;11.27;1.90;;;;;;;21.53;50.59;102645.94;4988520;28;20119;-82
2021/08/23 16:23:04;;;;;;;;;;;;;;;;;;;;;
2021/08/23 16:25:43;;;;;;;2.42;1.30;;;;;;;21.40;50.60;102645.00;4967627;28;20049;-83
2021/08/23 16:28:44;;;;;;;3.90;1.60;;;;;;;21.38;51.47;102655.72;4988742;28;20041;-82
2021/08/23 16:31:29;;;;;;;3.05;1.70;;;;;;;21.36;50.76;102653.94;4955656;28;20462;-85